sensor_id;sensor_type;location;lat;lon;timestamp;P1;durP1;ratioP1;P2;durP2;ratioP2
10651;SDS011;5374;42.742;23.266;2022-08-21T00:00:14;11.37;;;7.13;;
10651;SDS011;5374;42.742;23.266;2022-08-21T00:03:07;13.37;;;8.00;;
10651;SDS011;5374;42.742;23.266;2022-08-21T00:05:56;11.57;;;9.30;;
10651;SDS011;5374;42.742;23.266;2022-08-21T00:08:43;11.00;;;8.63;;
10651;SDS011;5374;42.742;23.266;2022-08-21T00:11:31;10.43;;;8.07;;
10651;SDS011;5374;42.742;23.266;2022-08-21T00:14:18;12.70;;;7.17;;
10651;SDS011;5374;42.742;23.266;2022-08-21T00:17:05;11.07;;;7.37;;
10651;SDS011;5374;42.742;23.266;2022-08-21T00:19:54;7.90;;;6.63;;
10651;SDS011;5374;42.742;23.266;2022-08-21T00:22:42;9.27;;;6.73;;
10651;SDS011;5374;42.742;23.266;2022-08-21T00:25:30;9.27;;;6.93;;
10651;SDS011;5374;42.742;23.266;2022-08-21T00:28:17;7.53;;;6.33;;
10651;SDS011;5374;42.742;23.266;2022-08-21T00:31:04;7.97;;;6.43;;
10651;SDS011;5374;42.742;23.266;2022-08-21T00:33:52;7.57;;;5.87;;
10651;SDS011;5374;42.742;23.266;2022-08-21T00:36:40;8.03;;;6.70;;
10651;SDS011;5374;42.742;23.266;2022-08-21T00:39:27;8.60;;;6.43;;
10651;SDS011;5374;42.742;23.266;2022-08-21T00:42:15;7.37;;;6.57;;
10651;SDS011;5374;42.742;23.266;2022-08-21T00:45:03;10.43;;;7.20;;
10651;SDS011;5374;42.742;23.266;2022-08-21T00:47:51;8.53;;;6.43;;
10651;SDS011;5374;42.742;23.266;2022-08-21T00:50:42;7.83;;;6.50;;
10651;SDS011;5374;42.742;23.266;2022-08-21T00:53:34;7.00;;;6.30;;
10651;SDS011;5374;42.742;23.266;2022-08-21T00:56:24;7.70;;;6.90;;
10651;SDS011;5374;42.742;23.266;2022-08-21T00:59:12;10.07;;;7.00;;
10651;SDS011;5374;42.742;23.266;2022-08-21T01:01:59;8.47;;;6.27;;
10651;SDS011;5374;42.742;23.266;2022-08-21T01:04:46;8.80;;;6.30;;
10651;SDS011;5374;42.742;23.266;2022-08-21T01:07:33;9.53;;;7.10;;
10651;SDS011;5374;42.742;23.266;2022-08-21T01:10:22;8.33;;;6.20;;
10651;SDS011;5374;42.742;23.266;2022-08-21T01:13:10;9.43;;;6.37;;
10651;SDS011;5374;42.742;23.266;2022-08-21T01:16:01;9.23;;;7.37;;
10651;SDS011;5374;42.742;23.266;2022-08-21T01:18:50;8.73;;;6.70;;
10651;SDS011;5374;42.742;23.266;2022-08-21T01:21:40;9.50;;;6.43;;
10651;SDS011;5374;42.742;23.266;2022-08-21T01:24:27;11.10;;;6.80;;
10651;SDS011;5374;42.742;23.266;2022-08-21T01:27:14;10.07;;;7.07;;
10651;SDS011;5374;42.742;23.266;2022-08-21T01:30:05;8.47;;;7.27;;
10651;SDS011;5374;42.742;23.266;2022-08-21T01:32:56;9.23;;;7.10;;
10651;SDS011;5374;42.742;23.266;2022-08-21T01:35:44;7.47;;;6.77;;
10651;SDS011;5374;42.742;23.266;2022-08-21T01:38:32;9.93;;;7.80;;
10651;SDS011;5374;42.742;23.266;2022-08-21T01:41:20;11.37;;;7.90;;
10651;SDS011;5374;42.742;23.266;2022-08-21T01:44:07;9.20;;;7.67;;
10651;SDS011;5374;42.742;23.266;2022-08-21T01:46:55;9.43;;;7.13;;
10651;SDS011;5374;42.742;23.266;2022-08-21T01:49:44;10.07;;;7.33;;
10651;SDS011;5374;42.742;23.266;2022-08-21T01:52:32;12.63;;;7.83;;
10651;SDS011;5374;42.742;23.266;2022-08-21T01:55:21;9.30;;;7.77;;
10651;SDS011;5374;42.742;23.266;2022-08-21T01:58:09;13.03;;;9.43;;
10651;SDS011;5374;42.742;23.266;2022-08-21T02:00:56;11.03;;;9.23;;
10651;SDS011;5374;42.742;23.266;2022-08-21T02:03:43;10.63;;;9.40;;
10651;SDS011;5374;42.742;23.266;2022-08-21T02:06:31;11.57;;;9.87;;
10651;SDS011;5374;42.742;23.266;2022-08-21T02:09:19;13.60;;;10.17;;
10651;SDS011;5374;42.742;23.266;2022-08-21T02:12:09;11.93;;;10.47;;
10651;SDS011;5374;42.742;23.266;2022-08-21T02:14:56;14.63;;;10.87;;
10651;SDS011;5374;42.742;23.266;2022-08-21T02:17:44;15.50;;;11.00;;
10651;SDS011;5374;42.742;23.266;2022-08-21T02:20:34;16.37;;;11.13;;
10651;SDS011;5374;42.742;23.266;2022-08-21T02:23:24;11.70;;;10.13;;
10651;SDS011;5374;42.742;23.266;2022-08-21T02:26:11;13.50;;;11.30;;
10651;SDS011;5374;42.742;23.266;2022-08-21T02:29:00;14.20;;;10.87;;
10651;SDS011;5374;42.742;23.266;2022-08-21T02:31:48;13.57;;;11.33;;
10651;SDS011;5374;42.742;23.266;2022-08-21T02:34:35;16.43;;;11.07;;
10651;SDS011;5374;42.742;23.266;2022-08-21T02:37:22;14.80;;;11.27;;
10651;SDS011;5374;42.742;23.266;2022-08-21T02:40:10;17.23;;;11.20;;
10651;SDS011;5374;42.742;23.266;2022-08-21T02:42:58;14.47;;;10.80;;
10651;SDS011;5374;42.742;23.266;2022-08-21T02:45:46;11.40;;;9.93;;
10651;SDS011;5374;42.742;23.266;2022-08-21T02:48:34;12.13;;;10.00;;
10651;SDS011;5374;42.742;23.266;2022-08-21T02:51:22;15.03;;;10.67;;
10651;SDS011;5374;42.742;23.266;2022-08-21T02:54:10;12.50;;;10.40;;
10651;SDS011;5374;42.742;23.266;2022-08-21T02:56:57;12.47;;;9.87;;
10651;SDS011;5374;42.742;23.266;2022-08-21T02:59:44;13.83;;;10.20;;
10651;SDS011;5374;42.742;23.266;2022-08-21T03:02:33;12.37;;;10.47;;
10651;SDS011;5374;42.742;23.266;2022-08-21T03:05:21;14.53;;;10.07;;
10651;SDS011;5374;42.742;23.266;2022-08-21T03:08:11;13.30;;;9.67;;
10651;SDS011;5374;42.742;23.266;2022-08-21T03:10:59;11.33;;;9.73;;
10651;SDS011;5374;42.742;23.266;2022-08-21T03:13:46;12.27;;;9.87;;
10651;SDS011;5374;42.742;23.266;2022-08-21T03:16:33;12.07;;;9.87;;
10651;SDS011;5374;42.742;23.266;2022-08-21T03:19:22;11.47;;;10.27;;
10651;SDS011;5374;42.742;23.266;2022-08-21T03:22:09;11.97;;;10.73;;
10651;SDS011;5374;42.742;23.266;2022-08-21T03:24:57;13.97;;;10.20;;
10651;SDS011;5374;42.742;23.266;2022-08-21T03:27:44;11.43;;;9.53;;
10651;SDS011;5374;42.742;23.266;2022-08-21T03:30:32;10.90;;;9.80;;
10651;SDS011;5374;42.742;23.266;2022-08-21T03:33:20;13.00;;;10.20;;
10651;SDS011;5374;42.742;23.266;2022-08-21T03:36:08;15.53;;;10.67;;
10651;SDS011;5374;42.742;23.266;2022-08-21T03:38:56;14.07;;;9.70;;
10651;SDS011;5374;42.742;23.266;2022-08-21T03:41:43;15.47;;;10.27;;
10651;SDS011;5374;42.742;23.266;2022-08-21T03:44:30;11.57;;;9.53;;
10651;SDS011;5374;42.742;23.266;2022-08-21T03:47:18;11.67;;;9.83;;
10651;SDS011;5374;42.742;23.266;2022-08-21T03:50:05;13.10;;;10.10;;
10651;SDS011;5374;42.742;23.266;2022-08-21T03:52:54;15.63;;;10.20;;
10651;SDS011;5374;42.742;23.266;2022-08-21T03:55:42;11.97;;;10.27;;
10651;SDS011;5374;42.742;23.266;2022-08-21T03:58:29;16.13;;;11.30;;
10651;SDS011;5374;42.742;23.266;2022-08-21T04:01:16;14.67;;;12.90;;
10651;SDS011;5374;42.742;23.266;2022-08-21T04:04:04;14.13;;;12.63;;
10651;SDS011;5374;42.742;23.266;2022-08-21T04:06:51;16.30;;;13.57;;
10651;SDS011;5374;42.742;23.266;2022-08-21T04:09:40;18.00;;;14.67;;
10651;SDS011;5374;42.742;23.266;2022-08-21T04:12:27;17.53;;;13.83;;
10651;SDS011;5374;42.742;23.266;2022-08-21T04:15:14;16.13;;;13.43;;
10651;SDS011;5374;42.742;23.266;2022-08-21T04:18:01;16.67;;;13.77;;
10651;SDS011;5374;42.742;23.266;2022-08-21T04:20:51;16.63;;;13.70;;
10651;SDS011;5374;42.742;23.266;2022-08-21T04:23:40;17.23;;;14.17;;
10651;SDS011;5374;42.742;23.266;2022-08-21T04:26:29;17.73;;;13.77;;
10651;SDS011;5374;42.742;23.266;2022-08-21T04:29:16;16.17;;;14.20;;
10651;SDS011;5374;42.742;23.266;2022-08-21T04:32:05;16.87;;;14.50;;
10651;SDS011;5374;42.742;23.266;2022-08-21T04:34:57;16.30;;;14.57;;
10651;SDS011;5374;42.742;23.266;2022-08-21T04:37:45;17.43;;;14.10;;
10651;SDS011;5374;42.742;23.266;2022-08-21T04:40:32;17.63;;;15.03;;
10651;SDS011;5374;42.742;23.266;2022-08-21T04:43:21;19.50;;;14.47;;
10651;SDS011;5374;42.742;23.266;2022-08-21T04:46:08;21.03;;;15.57;;
10651;SDS011;5374;42.742;23.266;2022-08-21T04:48:56;20.47;;;16.10;;
10651;SDS011;5374;42.742;23.266;2022-08-21T04:51:43;20.93;;;16.03;;
10651;SDS011;5374;42.742;23.266;2022-08-21T04:54:30;18.80;;;15.50;;
10651;SDS011;5374;42.742;23.266;2022-08-21T04:57:18;20.93;;;15.93;;
10651;SDS011;5374;42.742;23.266;2022-08-21T05:00:08;19.13;;;16.83;;
10651;SDS011;5374;42.742;23.266;2022-08-21T05:02:58;20.33;;;17.10;;
10651;SDS011;5374;42.742;23.266;2022-08-21T05:05:47;22.80;;;17.03;;
10651;SDS011;5374;42.742;23.266;2022-08-21T05:08:35;22.40;;;17.17;;
10651;SDS011;5374;42.742;23.266;2022-08-21T05:11:24;22.77;;;19.30;;
10651;SDS011;5374;42.742;23.266;2022-08-21T05:14:11;22.00;;;17.83;;
10651;SDS011;5374;42.742;23.266;2022-08-21T05:17:01;22.37;;;17.33;;
10651;SDS011;5374;42.742;23.266;2022-08-21T05:19:49;20.53;;;17.07;;
10651;SDS011;5374;42.742;23.266;2022-08-21T05:22:37;20.20;;;16.93;;
10651;SDS011;5374;42.742;23.266;2022-08-21T05:25:25;21.13;;;16.67;;
10651;SDS011;5374;42.742;23.266;2022-08-21T05:28:12;20.93;;;16.10;;
10651;SDS011;5374;42.742;23.266;2022-08-21T05:30:59;20.33;;;15.93;;
10651;SDS011;5374;42.742;23.266;2022-08-21T05:33:47;21.87;;;16.73;;
10651;SDS011;5374;42.742;23.266;2022-08-21T05:36:35;20.17;;;17.47;;
10651;SDS011;5374;42.742;23.266;2022-08-21T05:39:22;19.67;;;16.23;;
10651;SDS011;5374;42.742;23.266;2022-08-21T05:42:09;21.73;;;16.70;;
10651;SDS011;5374;42.742;23.266;2022-08-21T05:44:56;22.20;;;17.70;;
10651;SDS011;5374;42.742;23.266;2022-08-21T05:47:43;19.13;;;17.17;;
10651;SDS011;5374;42.742;23.266;2022-08-21T05:50:32;20.87;;;17.53;;
10651;SDS011;5374;42.742;23.266;2022-08-21T05:53:20;20.33;;;17.17;;
10651;SDS011;5374;42.742;23.266;2022-08-21T05:56:09;20.47;;;17.57;;
10651;SDS011;5374;42.742;23.266;2022-08-21T05:58:57;26.57;;;19.00;;
10651;SDS011;5374;42.742;23.266;2022-08-21T06:01:45;20.90;;;18.40;;
10651;SDS011;5374;42.742;23.266;2022-08-21T06:04:34;22.60;;;18.10;;
10651;SDS011;5374;42.742;23.266;2022-08-21T06:07:24;24.03;;;18.43;;
10651;SDS011;5374;42.742;23.266;2022-08-21T06:10:11;21.47;;;17.90;;
10651;SDS011;5374;42.742;23.266;2022-08-21T06:12:58;22.90;;;18.83;;
10651;SDS011;5374;42.742;23.266;2022-08-21T06:15:45;22.80;;;18.80;;
10651;SDS011;5374;42.742;23.266;2022-08-21T06:18:33;22.83;;;19.23;;
10651;SDS011;5374;42.742;23.266;2022-08-21T06:21:21;22.40;;;19.43;;
10651;SDS011;5374;42.742;23.266;2022-08-21T06:24:09;22.50;;;19.43;;
10651;SDS011;5374;42.742;23.266;2022-08-21T06:26:56;24.87;;;20.20;;
10651;SDS011;5374;42.742;23.266;2022-08-21T06:29:44;25.93;;;18.93;;
10651;SDS011;5374;42.742;23.266;2022-08-21T06:32:31;24.00;;;19.37;;
10651;SDS011;5374;42.742;23.266;2022-08-21T06:35:18;20.77;;;18.57;;
10651;SDS011;5374;42.742;23.266;2022-08-21T06:38:05;19.87;;;17.77;;
10651;SDS011;5374;42.742;23.266;2022-08-21T06:40:54;23.03;;;17.40;;
10651;SDS011;5374;42.742;23.266;2022-08-21T06:43:41;23.77;;;18.20;;
10651;SDS011;5374;42.742;23.266;2022-08-21T06:46:29;19.57;;;17.47;;
10651;SDS011;5374;42.742;23.266;2022-08-21T06:49:17;17.60;;;15.47;;
10651;SDS011;5374;42.742;23.266;2022-08-21T06:52:07;16.57;;;14.87;;
10651;SDS011;5374;42.742;23.266;2022-08-21T06:54:55;21.13;;;14.73;;
10651;SDS011;5374;42.742;23.266;2022-08-21T06:57:43;15.67;;;14.00;;
10651;SDS011;5374;42.742;23.266;2022-08-21T07:00:31;15.03;;;13.43;;
10651;SDS011;5374;42.742;23.266;2022-08-21T07:03:19;14.57;;;12.40;;
10651;SDS011;5374;42.742;23.266;2022-08-21T07:06:09;13.83;;;12.37;;
10651;SDS011;5374;42.742;23.266;2022-08-21T07:08:57;15.43;;;13.00;;
10651;SDS011;5374;42.742;23.266;2022-08-21T07:11:44;15.63;;;12.13;;
10651;SDS011;5374;42.742;23.266;2022-08-21T07:14:37;12.57;;;10.93;;
10651;SDS011;5374;42.742;23.266;2022-08-21T07:17:25;12.20;;;10.73;;
10651;SDS011;5374;42.742;23.266;2022-08-21T07:20:12;13.57;;;10.70;;
10651;SDS011;5374;42.742;23.266;2022-08-21T07:23:00;12.37;;;11.07;;
10651;SDS011;5374;42.742;23.266;2022-08-21T07:25:51;13.43;;;11.97;;
10651;SDS011;5374;42.742;23.266;2022-08-21T07:28:38;13.43;;;11.33;;
10651;SDS011;5374;42.742;23.266;2022-08-21T07:31:27;15.30;;;11.97;;
10651;SDS011;5374;42.742;23.266;2022-08-21T07:34:14;14.83;;;11.10;;
10651;SDS011;5374;42.742;23.266;2022-08-21T07:37:01;13.50;;;11.43;;
10651;SDS011;5374;42.742;23.266;2022-08-21T07:39:49;12.33;;;11.03;;
10651;SDS011;5374;42.742;23.266;2022-08-21T07:42:39;12.03;;;10.47;;
10651;SDS011;5374;42.742;23.266;2022-08-21T07:45:27;11.43;;;10.23;;
10651;SDS011;5374;42.742;23.266;2022-08-21T07:48:16;12.20;;;10.90;;
10651;SDS011;5374;42.742;23.266;2022-08-21T07:51:05;12.30;;;10.80;;
10651;SDS011;5374;42.742;23.266;2022-08-21T07:53:55;15.33;;;10.93;;
10651;SDS011;5374;42.742;23.266;2022-08-21T07:56:44;13.17;;;10.57;;
10651;SDS011;5374;42.742;23.266;2022-08-21T07:59:31;12.23;;;10.43;;
10651;SDS011;5374;42.742;23.266;2022-08-21T08:02:21;11.80;;;10.60;;
10651;SDS011;5374;42.742;23.266;2022-08-21T08:05:11;12.10;;;10.20;;
10651;SDS011;5374;42.742;23.266;2022-08-21T08:07:59;12.70;;;10.40;;
10651;SDS011;5374;42.742;23.266;2022-08-21T08:10:46;11.40;;;10.20;;
10651;SDS011;5374;42.742;23.266;2022-08-21T08:13:37;12.47;;;10.53;;
10651;SDS011;5374;42.742;23.266;2022-08-21T08:16:25;12.97;;;9.67;;
10651;SDS011;5374;42.742;23.266;2022-08-21T08:19:13;12.63;;;10.77;;
10651;SDS011;5374;42.742;23.266;2022-08-21T08:22:01;11.13;;;8.80;;
10651;SDS011;5374;42.742;23.266;2022-08-21T08:24:59;11.53;;;8.33;;
10651;SDS011;5374;42.742;23.266;2022-08-21T08:27:46;8.73;;;7.10;;
10651;SDS011;5374;42.742;23.266;2022-08-21T08:30:34;11.57;;;7.40;;
10651;SDS011;5374;42.742;23.266;2022-08-21T08:33:21;13.93;;;10.23;;
10651;SDS011;5374;42.742;23.266;2022-08-21T08:36:12;9.83;;;8.77;;
10651;SDS011;5374;42.742;23.266;2022-08-21T08:39:02;12.63;;;7.87;;
10651;SDS011;5374;42.742;23.266;2022-08-21T08:41:50;9.20;;;7.23;;
10651;SDS011;5374;42.742;23.266;2022-08-21T08:44:43;9.10;;;7.97;;
10651;SDS011;5374;42.742;23.266;2022-08-21T08:47:32;10.73;;;7.93;;
10651;SDS011;5374;42.742;23.266;2022-08-21T08:50:24;26.80;;;17.80;;
10651;SDS011;5374;42.742;23.266;2022-08-21T08:53:15;10.00;;;8.10;;
10651;SDS011;5374;42.742;23.266;2022-08-21T08:56:08;9.90;;;8.17;;
10651;SDS011;5374;42.742;23.266;2022-08-21T08:58:59;10.27;;;8.03;;
10651;SDS011;5374;42.742;23.266;2022-08-21T09:01:49;9.93;;;8.37;;
10651;SDS011;5374;42.742;23.266;2022-08-21T09:04:36;9.13;;;7.63;;
10651;SDS011;5374;42.742;23.266;2022-08-21T09:07:26;9.00;;;7.73;;
10651;SDS011;5374;42.742;23.266;2022-08-21T09:10:26;10.70;;;7.90;;
10651;SDS011;5374;42.742;23.266;2022-08-21T09:13:25;12.20;;;7.87;;
10651;SDS011;5374;42.742;23.266;2022-08-21T09:16:24;10.23;;;8.17;;
10651;SDS011;5374;42.742;23.266;2022-08-21T09:19:27;9.37;;;7.90;;
10651;SDS011;5374;42.742;23.266;2022-08-21T09:22:28;9.77;;;7.73;;
10651;SDS011;5374;42.742;23.266;2022-08-21T09:25:38;10.43;;;8.60;;
10651;SDS011;5374;42.742;23.266;2022-08-21T09:28:34;10.63;;;8.93;;
10651;SDS011;5374;42.742;23.266;2022-08-21T09:31:24;12.43;;;9.80;;
10651;SDS011;5374;42.742;23.266;2022-08-21T09:34:23;10.13;;;7.67;;
10651;SDS011;5374;42.742;23.266;2022-08-21T09:37:15;11.00;;;8.20;;
10651;SDS011;5374;42.742;23.266;2022-08-21T09:40:13;9.60;;;7.70;;
10651;SDS011;5374;42.742;23.266;2022-08-21T09:43:10;12.07;;;10.87;;
10651;SDS011;5374;42.742;23.266;2022-08-21T09:46:09;8.77;;;6.30;;
10651;SDS011;5374;42.742;23.266;2022-08-21T09:48:59;10.10;;;6.67;;
10651;SDS011;5374;42.742;23.266;2022-08-21T09:51:49;9.80;;;6.20;;
10651;SDS011;5374;42.742;23.266;2022-08-21T09:54:39;7.77;;;6.93;;
10651;SDS011;5374;42.742;23.266;2022-08-21T09:57:28;7.03;;;6.00;;
10651;SDS011;5374;42.742;23.266;2022-08-21T10:00:26;9.63;;;5.77;;
10651;SDS011;5374;42.742;23.266;2022-08-21T10:03:17;8.17;;;5.60;;
10651;SDS011;5374;42.742;23.266;2022-08-21T10:06:07;8.03;;;5.43;;
10651;SDS011;5374;42.742;23.266;2022-08-21T10:09:03;7.83;;;6.93;;
10651;SDS011;5374;42.742;23.266;2022-08-21T10:11:57;9.40;;;5.20;;
10651;SDS011;5374;42.742;23.266;2022-08-21T10:14:56;8.03;;;4.90;;
10651;SDS011;5374;42.742;23.266;2022-08-21T10:17:52;8.67;;;5.37;;
10651;SDS011;5374;42.742;23.266;2022-08-21T10:20:52;9.23;;;5.70;;
10651;SDS011;5374;42.742;23.266;2022-08-21T10:23:51;6.33;;;5.27;;
10651;SDS011;5374;42.742;23.266;2022-08-21T10:26:48;5.43;;;4.83;;
10651;SDS011;5374;42.742;23.266;2022-08-21T10:29:45;10.23;;;5.40;;
10651;SDS011;5374;42.742;23.266;2022-08-21T10:32:49;8.73;;;5.70;;
10651;SDS011;5374;42.742;23.266;2022-08-21T10:36:04;8.37;;;5.90;;
10651;SDS011;5374;42.742;23.266;2022-08-21T10:39:02;7.73;;;5.63;;
10651;SDS011;5374;42.742;23.266;2022-08-21T10:42:05;6.70;;;5.70;;
10651;SDS011;5374;42.742;23.266;2022-08-21T10:45:08;9.37;;;7.00;;
10651;SDS011;5374;42.742;23.266;2022-08-21T10:48:02;17.93;;;11.97;;
10651;SDS011;5374;42.742;23.266;2022-08-21T10:50:54;9.70;;;6.97;;
10651;SDS011;5374;42.742;23.266;2022-08-21T10:53:56;10.67;;;6.33;;
10651;SDS011;5374;42.742;23.266;2022-08-21T10:56:49;13.53;;;8.67;;
10651;SDS011;5374;42.742;23.266;2022-08-21T10:59:47;15.07;;;9.43;;
10651;SDS011;5374;42.742;23.266;2022-08-21T11:02:42;7.27;;;5.50;;
10651;SDS011;5374;42.742;23.266;2022-08-21T11:05:38;10.40;;;6.97;;
10651;SDS011;5374;42.742;23.266;2022-08-21T11:08:29;8.07;;;5.60;;
10651;SDS011;5374;42.742;23.266;2022-08-21T11:11:25;10.33;;;6.10;;
10651;SDS011;5374;42.742;23.266;2022-08-21T11:14:19;9.00;;;5.77;;
10651;SDS011;5374;42.742;23.266;2022-08-21T11:17:12;7.17;;;5.37;;
10651;SDS011;5374;42.742;23.266;2022-08-21T11:20:03;8.53;;;5.30;;
10651;SDS011;5374;42.742;23.266;2022-08-21T11:22:56;7.77;;;6.03;;
10651;SDS011;5374;42.742;23.266;2022-08-21T11:25:49;8.67;;;5.57;;
10651;SDS011;5374;42.742;23.266;2022-08-21T11:28:42;7.13;;;5.73;;
10651;SDS011;5374;42.742;23.266;2022-08-21T11:31:37;8.73;;;5.60;;
10651;SDS011;5374;42.742;23.266;2022-08-21T11:34:37;6.83;;;5.67;;
10651;SDS011;5374;42.742;23.266;2022-08-21T11:37:39;7.87;;;5.77;;
10651;SDS011;5374;42.742;23.266;2022-08-21T11:40:48;6.00;;;5.47;;
10651;SDS011;5374;42.742;23.266;2022-08-21T11:43:51;10.03;;;5.40;;
10651;SDS011;5374;42.742;23.266;2022-08-21T11:46:47;7.97;;;5.97;;
10651;SDS011;5374;42.742;23.266;2022-08-21T11:49:42;9.70;;;5.77;;
10651;SDS011;5374;42.742;23.266;2022-08-21T11:52:49;6.73;;;4.90;;
10651;SDS011;5374;42.742;23.266;2022-08-21T11:55:41;6.03;;;5.10;;
10651;SDS011;5374;42.742;23.266;2022-08-21T11:58:32;8.90;;;5.87;;
10651;SDS011;5374;42.742;23.266;2022-08-21T12:01:27;10.13;;;6.77;;
10651;SDS011;5374;42.742;23.266;2022-08-21T12:04:22;8.70;;;6.20;;
10651;SDS011;5374;42.742;23.266;2022-08-21T12:07:14;6.57;;;5.87;;
10651;SDS011;5374;42.742;23.266;2022-08-21T12:10:05;8.10;;;5.53;;
10651;SDS011;5374;42.742;23.266;2022-08-21T12:12:55;7.90;;;5.73;;
10651;SDS011;5374;42.742;23.266;2022-08-21T12:16:04;6.37;;;4.60;;
10651;SDS011;5374;42.742;23.266;2022-08-21T12:19:01;7.67;;;5.10;;
10651;SDS011;5374;42.742;23.266;2022-08-21T12:21:50;7.70;;;5.63;;
10651;SDS011;5374;42.742;23.266;2022-08-21T12:24:40;7.23;;;5.43;;
10651;SDS011;5374;42.742;23.266;2022-08-21T12:27:29;6.73;;;5.10;;
10651;SDS011;5374;42.742;23.266;2022-08-21T12:30:33;6.67;;;5.20;;
10651;SDS011;5374;42.742;23.266;2022-08-21T12:33:24;8.97;;;5.60;;
10651;SDS011;5374;42.742;23.266;2022-08-21T12:36:17;8.17;;;5.30;;
10651;SDS011;5374;42.742;23.266;2022-08-21T12:39:12;6.93;;;5.30;;
10651;SDS011;5374;42.742;23.266;2022-08-21T12:42:06;6.97;;;5.63;;
10651;SDS011;5374;42.742;23.266;2022-08-21T12:45:03;7.70;;;6.20;;
10651;SDS011;5374;42.742;23.266;2022-08-21T12:47:58;6.97;;;6.23;;
10651;SDS011;5374;42.742;23.266;2022-08-21T12:50:49;8.07;;;5.97;;
10651;SDS011;5374;42.742;23.266;2022-08-21T12:53:40;6.77;;;5.70;;
10651;SDS011;5374;42.742;23.266;2022-08-21T12:56:32;6.37;;;5.60;;
10651;SDS011;5374;42.742;23.266;2022-08-21T12:59:21;7.83;;;5.97;;
10651;SDS011;5374;42.742;23.266;2022-08-21T13:02:11;8.20;;;5.80;;
10651;SDS011;5374;42.742;23.266;2022-08-21T13:05:04;6.97;;;5.60;;
10651;SDS011;5374;42.742;23.266;2022-08-21T13:07:52;6.43;;;5.83;;
10651;SDS011;5374;42.742;23.266;2022-08-21T13:10:41;7.20;;;6.47;;
10651;SDS011;5374;42.742;23.266;2022-08-21T13:13:30;7.97;;;5.23;;
10651;SDS011;5374;42.742;23.266;2022-08-21T13:16:20;7.47;;;5.60;;
10651;SDS011;5374;42.742;23.266;2022-08-21T13:19:11;8.80;;;5.97;;
10651;SDS011;5374;42.742;23.266;2022-08-21T13:22:04;6.80;;;5.40;;
10651;SDS011;5374;42.742;23.266;2022-08-21T13:25:00;6.93;;;5.60;;
10651;SDS011;5374;42.742;23.266;2022-08-21T13:27:57;8.40;;;5.60;;
10651;SDS011;5374;42.742;23.266;2022-08-21T13:30:48;8.53;;;5.40;;
10651;SDS011;5374;42.742;23.266;2022-08-21T13:33:37;8.17;;;5.50;;
10651;SDS011;5374;42.742;23.266;2022-08-21T13:36:29;6.87;;;5.63;;
10651;SDS011;5374;42.742;23.266;2022-08-21T13:39:19;8.17;;;4.90;;
10651;SDS011;5374;42.742;23.266;2022-08-21T13:42:09;8.57;;;5.10;;
10651;SDS011;5374;42.742;23.266;2022-08-21T13:45:00;7.43;;;5.00;;
10651;SDS011;5374;42.742;23.266;2022-08-21T13:47:47;9.00;;;5.20;;
10651;SDS011;5374;42.742;23.266;2022-08-21T13:50:35;8.40;;;5.70;;
10651;SDS011;5374;42.742;23.266;2022-08-21T13:53:27;8.30;;;5.60;;
10651;SDS011;5374;42.742;23.266;2022-08-21T13:56:21;8.17;;;5.57;;
10651;SDS011;5374;42.742;23.266;2022-08-21T13:59:09;6.87;;;5.40;;
10651;SDS011;5374;42.742;23.266;2022-08-21T14:01:59;8.23;;;5.73;;
10651;SDS011;5374;42.742;23.266;2022-08-21T14:04:50;7.67;;;5.60;;
10651;SDS011;5374;42.742;23.266;2022-08-21T14:07:40;7.67;;;5.77;;
10651;SDS011;5374;42.742;23.266;2022-08-21T14:10:29;8.97;;;5.57;;
10651;SDS011;5374;42.742;23.266;2022-08-21T14:13:23;7.13;;;5.17;;
10651;SDS011;5374;42.742;23.266;2022-08-21T14:16:17;9.00;;;5.40;;
10651;SDS011;5374;42.742;23.266;2022-08-21T14:19:17;7.73;;;5.60;;
10651;SDS011;5374;42.742;23.266;2022-08-21T14:25:27;7.10;;;5.03;;
10651;SDS011;5374;42.742;23.266;2022-08-21T14:28:19;7.00;;;5.33;;
10651;SDS011;5374;42.742;23.266;2022-08-21T14:31:11;5.53;;;4.67;;
10651;SDS011;5374;42.742;23.266;2022-08-21T14:34:01;10.00;;;5.30;;
10651;SDS011;5374;42.742;23.266;2022-08-21T14:36:50;6.13;;;4.90;;
10651;SDS011;5374;42.742;23.266;2022-08-21T14:39:37;6.90;;;5.40;;
10651;SDS011;5374;42.742;23.266;2022-08-21T14:42:25;7.93;;;4.90;;
10651;SDS011;5374;42.742;23.266;2022-08-21T14:45:13;7.73;;;4.93;;
10651;SDS011;5374;42.742;23.266;2022-08-21T14:48:02;8.17;;;4.80;;
10651;SDS011;5374;42.742;23.266;2022-08-21T14:50:49;6.20;;;4.80;;
10651;SDS011;5374;42.742;23.266;2022-08-21T14:53:38;6.67;;;4.97;;
10651;SDS011;5374;42.742;23.266;2022-08-21T14:56:25;6.93;;;5.07;;
10651;SDS011;5374;42.742;23.266;2022-08-21T14:59:13;7.97;;;5.27;;
10651;SDS011;5374;42.742;23.266;2022-08-21T15:02:00;7.00;;;5.17;;
10651;SDS011;5374;42.742;23.266;2022-08-21T15:04:49;6.20;;;4.90;;
10651;SDS011;5374;42.742;23.266;2022-08-21T15:07:36;6.70;;;4.93;;
10651;SDS011;5374;42.742;23.266;2022-08-21T15:10:25;6.53;;;5.60;;
10651;SDS011;5374;42.742;23.266;2022-08-21T15:13:12;5.83;;;5.17;;
10651;SDS011;5374;42.742;23.266;2022-08-21T15:15:59;8.73;;;5.43;;
10651;SDS011;5374;42.742;23.266;2022-08-21T15:18:47;5.90;;;5.03;;
10651;SDS011;5374;42.742;23.266;2022-08-21T15:21:34;6.63;;;5.10;;
10651;SDS011;5374;42.742;23.266;2022-08-21T15:24:21;6.27;;;5.50;;
10651;SDS011;5374;42.742;23.266;2022-08-21T15:27:10;7.17;;;5.47;;
10651;SDS011;5374;42.742;23.266;2022-08-21T15:29:57;8.93;;;5.90;;
10651;SDS011;5374;42.742;23.266;2022-08-21T15:32:44;8.20;;;5.73;;
10651;SDS011;5374;42.742;23.266;2022-08-21T15:35:32;8.97;;;6.90;;
10651;SDS011;5374;42.742;23.266;2022-08-21T15:38:20;10.37;;;6.47;;
10651;SDS011;5374;42.742;23.266;2022-08-21T15:41:07;7.33;;;5.47;;
10651;SDS011;5374;42.742;23.266;2022-08-21T15:43:56;8.53;;;5.50;;
10651;SDS011;5374;42.742;23.266;2022-08-21T15:46:43;9.00;;;5.57;;
10651;SDS011;5374;42.742;23.266;2022-08-21T15:49:31;9.63;;;5.90;;
10651;SDS011;5374;42.742;23.266;2022-08-21T15:52:19;10.20;;;6.10;;
10651;SDS011;5374;42.742;23.266;2022-08-21T15:55:08;8.17;;;6.67;;
10651;SDS011;5374;42.742;23.266;2022-08-21T15:57:56;6.13;;;5.53;;
10651;SDS011;5374;42.742;23.266;2022-08-21T16:00:44;8.27;;;5.50;;
10651;SDS011;5374;42.742;23.266;2022-08-21T16:03:32;7.97;;;5.93;;
10651;SDS011;5374;42.742;23.266;2022-08-21T16:06:19;7.83;;;5.63;;
10651;SDS011;5374;42.742;23.266;2022-08-21T16:09:07;8.07;;;5.70;;
10651;SDS011;5374;42.742;23.266;2022-08-21T16:11:54;6.63;;;5.60;;
10651;SDS011;5374;42.742;23.266;2022-08-21T16:14:41;6.33;;;5.73;;
10651;SDS011;5374;42.742;23.266;2022-08-21T16:17:30;7.43;;;5.50;;
10651;SDS011;5374;42.742;23.266;2022-08-21T16:20:20;6.57;;;5.73;;
10651;SDS011;5374;42.742;23.266;2022-08-21T16:23:09;7.97;;;6.00;;
10651;SDS011;5374;42.742;23.266;2022-08-21T16:25:57;8.37;;;5.70;;
10651;SDS011;5374;42.742;23.266;2022-08-21T16:28:45;6.87;;;5.80;;
10651;SDS011;5374;42.742;23.266;2022-08-21T16:31:34;7.87;;;5.53;;
10651;SDS011;5374;42.742;23.266;2022-08-21T16:34:22;8.70;;;5.73;;
10651;SDS011;5374;42.742;23.266;2022-08-21T16:37:10;8.67;;;5.80;;
10651;SDS011;5374;42.742;23.266;2022-08-21T16:39:57;8.07;;;6.00;;
10651;SDS011;5374;42.742;23.266;2022-08-21T16:42:44;8.37;;;6.20;;
10651;SDS011;5374;42.742;23.266;2022-08-21T16:45:32;7.73;;;6.63;;
10651;SDS011;5374;42.742;23.266;2022-08-21T16:48:19;6.97;;;5.73;;
10651;SDS011;5374;42.742;23.266;2022-08-21T16:51:08;8.63;;;6.20;;
10651;SDS011;5374;42.742;23.266;2022-08-21T16:53:55;7.63;;;5.70;;